Dades meteomassalio
Diari Summary for Marc 24, 2017 Units:  Metric    English   Both
« Previous Day
Next Day »
Diari Semanal Mensual Anual Personalitzat
  Maxima: Minima: Mijana:
Temperatura: 10.8 °C 3.2 °C 7.2 °C
Rosada: 5.2 °C 1.7 °C 3.7 °C
Humitat: 92 % 66 % 80 %
Velocitat del vent: 14.8 km/h 0.0 km/h 2.3 km/h
Racha vent: 14.8 km/h - -
Vent:- - WSW
Pressio: 1017.5 hPa 1013.1 hPa -
Pluja: 0.3 mm    
Historical Graphs
 
 
Tabular Data for Marc 24, 2017
Time Temperature Dew Point Pressure Wind Wind Speed Wind Gust Humidity Rainfall Rate (Hourly) solar Conditions
00:01 3.4 °C 1.7 °C 1014.4 hPa Calm     89 % 0.0 mm 0.0 W/m2 RA
00:06 3.3 °C 1.8 °C 1014.8 hPa Calm     90 % 0.0 mm 0.0 W/m2 CLR
00:11 3.2 °C 1.7 °C 1014.8 hPa Calm     90 % 0.0 mm 0.0 W/m2 CLR
00:16 3.2 °C 1.7 °C 1014.8 hPa Calm     90 % 0.0 mm 0.0 W/m2 CLR
00:21 3.2 °C 1.7 °C 1014.4 hPa Calm     90 % 0.0 mm 0.0 W/m2 CLR
00:26 3.3 °C 1.8 °C 1014.8 hPa Calm     90 % 0.0 mm 0.0 W/m2 CLR
00:31 3.3 °C 1.8 °C 1014.8 hPa Calm     90 % 0.0 mm 0.0 W/m2 CLR
00:36 3.3 °C 1.8 °C 1014.8 hPa Calm     90 % 0.0 mm 0.0 W/m2 CLR
00:41 3.2 °C 1.7 °C 1014.8 hPa Calm     90 % 0.0 mm 0.0 W/m2 CLR
00:46 3.2 °C 1.7 °C 1014.8 hPa Calm     90 % 0.0 mm 0.0 W/m2 CLR
00:51 3.2 °C 1.8 °C 1014.8 hPa Calm     91 % 0.0 mm 0.0 W/m2 CLR
00:56 3.2 °C 1.8 °C 1014.8 hPa Calm     91 % 0.0 mm 0.0 W/m2 CLR
01:01 3.2 °C 1.8 °C 1014.8 hPa Calm     91 % 0.0 mm 0.0 W/m2 CLR
01:06 3.2 °C 1.9 °C 1014.8 hPa Calm     91 % 0.0 mm 0.0 W/m2 CLR
01:11 3.3 °C 1.9 °C 1014.8 hPa Calm     91 % 0.0 mm 0.0 W/m2 CLR
01:16 3.3 °C 1.8 °C 1014.8 hPa Calm     90 % 0.0 mm 0.0 W/m2 CLR
01:21 3.4 °C 1.9 °C 1014.8 hPa Calm     90 % 0.0 mm 0.0 W/m2 CLR
01:26 3.4 °C 2.1 °C 1014.8 hPa Calm     91 % 0.0 mm 0.0 W/m2 CLR
01:31 3.4 °C 1.9 °C 1014.8 hPa Calm     90 % 0.0 mm 0.0 W/m2 CLR
01:36 3.4 °C 1.9 °C 1014.8 hPa Calm     90 % 0.0 mm 0.0 W/m2 CLR
01:41 3.5 °C 2.2 °C 1014.8 hPa Calm     91 % 0.0 mm 0.0 W/m2 CLR
01:46 3.6 °C 2.2 °C 1015.1 hPa Calm     91 % 0.0 mm 0.0 W/m2 CLR
01:51 3.6 °C 2.3 °C 1014.8 hPa Calm     91 % 0.0 mm 0.0 W/m2 CLR
01:56 3.7 °C 2.4 °C 1014.8 hPa Calm     91 % 0.0 mm 0.0 W/m2 CLR
02:01 3.7 °C 2.4 °C 1015.1 hPa Calm     91 % 0.0 mm 0.0 W/m2 CLR
02:06 3.8 °C 2.3 °C 1015.1 hPa Calm     90 % 0.0 mm 0.0 W/m2 CLR
02:11 3.8 °C 2.4 °C 1015.1 hPa Calm     91 % 0.0 mm 0.0 W/m2 CLR
02:16 3.8 °C 2.3 °C 1015.1 hPa Calm     90 % 0.0 mm 0.0 W/m2 CLR
02:21 3.8 °C 2.5 °C 1015.1 hPa Calm     91 % 0.0 mm 0.0 W/m2 CLR
02:26 3.9 °C 2.6 °C 1014.8 hPa Calm     91 % 0.0 mm 0.0 W/m2 CLR
02:31 3.8 °C 2.3 °C 1014.8 hPa Calm     90 % 0.0 mm 0.0 W/m2 CLR
02:36 3.8 °C 2.3 °C 1015.1 hPa Calm     90 % 0.0 mm 0.0 W/m2 CLR
02:41 3.8 °C 2.3 °C 1015.1 hPa Calm     90 % 0.0 mm 0.0 W/m2 CLR
02:46 3.8 °C 2.3 °C 1015.1 hPa Calm     90 % 0.0 mm 0.0 W/m2 CLR
02:51 3.8 °C 2.3 °C 1014.4 hPa Calm     90 % 0.0 mm 0.0 W/m2 CLR
02:57 3.7 °C 2.2 °C 1014.8 hPa Calm     90 % 0.0 mm 0.0 W/m2 CLR
03:01 3.7 °C 2.2 °C 1014.4 hPa Calm     90 % 0.0 mm 0.0 W/m2 CLR
03:06 3.8 °C 2.4 °C 1014.4 hPa Calm     91 % 0.0 mm 0.0 W/m2 CLR
03:12 3.8 °C 2.5 °C 1014.4 hPa Calm     91 % 0.0 mm 0.0 W/m2 CLR
03:16 3.8 °C 2.5 °C 1014.8 hPa Calm     91 % 0.0 mm 0.0 W/m2 CLR
03:22 3.8 °C 2.5 °C 1014.4 hPa Calm     91 % 0.0 mm 0.0 W/m2 CLR
03:27 3.9 °C 2.6 °C 1014.8 hPa Calm     91 % 0.0 mm 0.0 W/m2 CLR
03:32 3.9 °C 2.6 °C 1014.8 hPa Calm     91 % 0.0 mm 0.0 W/m2 CLR
03:37 3.9 °C 2.4 °C 1014.8 hPa Calm     90 % 0.0 mm 0.0 W/m2 CLR
03:42 3.8 °C 2.3 °C 1014.8 hPa Calm     90 % 0.0 mm 0.0 W/m2 CLR
03:47 3.7 °C 2.2 °C 1014.8 hPa Calm     90 % 0.0 mm 0.0 W/m2 CLR
03:52 3.7 °C 2.2 °C 1014.8 hPa Calm     90 % 0.0 mm 0.0 W/m2 CLR
03:57 3.7 °C 2.3 °C 1014.8 hPa Calm     91 % 0.0 mm 0.0 W/m2 CLR
04:02 3.7 °C 2.4 °C 1014.8 hPa Calm     91 % 0.0 mm 0.0 W/m2 CLR
04:07 3.7 °C 2.3 °C 1014.4 hPa Calm     91 % 0.0 mm 0.0 W/m2 CLR
04:12 3.7 °C 2.3 °C 1014.4 hPa Calm     91 % 0.0 mm 0.0 W/m2 CLR
04:17 3.7 °C 2.3 °C 1014.8 hPa Calm     91 % 0.0 mm 0.0 W/m2 CLR
04:22 3.6 °C 2.3 °C 1014.8 hPa Calm     91 % 0.0 mm 0.0 W/m2 CLR
04:27 3.6 °C 2.3 °C 1014.8 hPa Calm     91 % 0.0 mm 0.0 W/m2 CLR
04:32 3.7 °C 2.3 °C 1014.8 hPa Calm     91 % 0.0 mm 0.0 W/m2 CLR
04:37 3.7 °C 2.3 °C 1014.8 hPa Calm     91 % 0.0 mm 0.0 W/m2 CLR
04:42 3.6 °C 2.2 °C 1014.8 hPa Calm     91 % 0.0 mm 0.0 W/m2 CLR
04:47 3.4 °C 2.1 °C 1015.1 hPa Calm     91 % 0.0 mm 0.0 W/m2 CLR
04:52 3.4 °C 2.1 °C 1015.1 hPa Calm     91 % 0.0 mm 0.0 W/m2 CLR
04:57 3.4 °C 2.2 °C 1015.1 hPa Calm     92 % 0.0 mm 0.0 W/m2 CLR
05:02 3.5 °C 2.3 °C 1015.1 hPa Calm     92 % 0.0 mm 0.0 W/m2 CLR
05:07 3.6 °C 2.4 °C 1015.1 hPa Calm     92 % 0.0 mm 0.0 W/m2 CLR
05:12 3.6 °C 2.4 °C 1015.5 hPa Calm     92 % 0.0 mm 0.0 W/m2 CLR
05:17 3.6 °C 2.4 °C 1015.1 hPa Calm     92 % 0.0 mm 0.0 W/m2 CLR
05:22 3.6 °C 2.4 °C 1015.1 hPa Calm     92 % 0.0 mm 0.0 W/m2 CLR
05:27 3.6 °C 2.4 °C 1015.1 hPa Calm     92 % 0.0 mm 0.0 W/m2 CLR
05:32 3.6 °C 2.4 °C 1015.1 hPa Calm     92 % 0.0 mm 0.0 W/m2 CLR
05:37 3.6 °C 2.4 °C 1015.1 hPa Calm     92 % 0.0 mm 0.0 W/m2 CLR
05:42 3.6 °C 2.4 °C 1015.5 hPa Calm     92 % 0.0 mm 0.0 W/m2 CLR
05:47 3.5 °C 2.3 °C 1015.1 hPa Calm     92 % 0.0 mm 0.0 W/m2 CLR
05:52 3.5 °C 2.3 °C 1015.1 hPa Calm     92 % 0.0 mm 0.0 W/m2 CLR
05:57 3.5 °C 2.3 °C 1015.1 hPa Calm     92 % 0.0 mm 0.0 W/m2 CLR
06:02 3.5 °C 2.3 °C 1015.1 hPa Calm     92 % 0.0 mm 0.0 W/m2 CLR
06:07 3.5 °C 2.3 °C 1015.1 hPa Calm     92 % 0.0 mm 0.0 W/m2 CLR
06:12 3.5 °C 2.3 °C 1015.1 hPa Calm     92 % 0.0 mm 0.0 W/m2 CLR
06:17 3.6 °C 2.4 °C 1015.1 hPa Calm     92 % 0.0 mm 0.0 W/m2 CLR
06:22 3.6 °C 2.4 °C 1015.5 hPa Calm     92 % 0.0 mm 0.0 W/m2 CLR
06:27 3.6 °C 2.4 °C 1015.1 hPa Calm     92 % 0.0 mm 0.0 W/m2 CLR
06:32 3.6 °C 2.4 °C 1015.5 hPa Calm     92 % 0.0 mm 0.0 W/m2 CLR
06:37 3.6 °C 2.2 °C 1015.5 hPa Calm     91 % 0.0 mm 0.0 W/m2 CLR
06:42 3.5 °C 2.2 °C 1015.5 hPa Calm     91 % 0.0 mm 0.0 W/m2 CLR
06:47 3.5 °C 2.2 °C 1015.5 hPa Calm     91 % 0.0 mm 0.0 W/m2 OVC
06:52 3.5 °C 2.3 °C 1015.5 hPa Calm     92 % 0.0 mm 0.0 W/m2 OVC
06:57 3.5 °C 2.3 °C 1015.5 hPa Calm     92 % 0.0 mm 0.0 W/m2 OVC
07:02 3.6 °C 2.4 °C 1015.8 hPa Calm     92 % 0.0 mm 0.0 W/m2 OVC
07:07 3.6 °C 2.2 °C 1015.8 hPa Calm     91 % 0.0 mm 5.0 W/m2 OVC
07:12 3.6 °C 2.4 °C 1015.8 hPa Calm     92 % 0.0 mm 7.0 W/m2 OVC
07:17 3.7 °C 2.6 °C 1015.8 hPa Calm     92 % 0.0 mm 11.0 W/m2 BKN
07:22 3.8 °C 2.6 °C 1015.8 hPa Calm     92 % 0.0 mm 11.0 W/m2 BKN
07:27 3.8 °C 2.5 °C 1015.8 hPa Calm     91 % 0.0 mm 12.0 W/m2 BKN
07:32 3.8 °C 2.5 °C 1015.8 hPa Calm     91 % 0.0 mm 18.0 W/m2 BKN
07:37 3.9 °C 2.6 °C 1015.8 hPa Calm     91 % 0.0 mm 23.0 W/m2 BKN
07:42 3.9 °C 2.6 °C 1016.1 hPa Calm     91 % 0.0 mm 32.0 W/m2 BKN
07:47 3.9 °C 2.6 °C 1016.1 hPa Calm     91 % 0.0 mm 26.0 W/m2 BKN
07:52 4.1 °C 2.7 °C 1016.1 hPa Calm     91 % 0.0 mm 26.0 W/m2 BKN
07:57 4.2 °C 2.8 °C 1016.5 hPa Calm     91 % 0.0 mm 53.0 W/m2 BKN
08:02 4.3 °C 2.9 °C 1016.8 hPa Calm     91 % 0.0 mm 77.0 W/m2 SCT
08:07 4.3 °C 3.0 °C 1016.8 hPa Calm     91 % 0.0 mm 58.0 W/m2 FEW
08:12 4.4 °C 3.1 °C 1016.5 hPa Calm     91 % 0.0 mm 53.0 W/m2 SCT
08:17 4.6 °C 3.2 °C 1016.8 hPa Calm     91 % 0.0 mm 62.0 W/m2 SCT
08:22 4.7 °C 3.3 °C 1016.8 hPa Calm     91 % 0.0 mm 70.0 W/m2 SCT
08:28 4.7 °C 3.2 °C 1016.8 hPa Calm     90 % 0.0 mm 76.0 W/m2 FEW
08:33 4.8 °C 3.3 °C 1016.8 hPa Calm     90 % 0.0 mm 76.0 W/m2 FEW
08:38 4.9 °C 3.6 °C 1016.8 hPa Calm     91 % 0.0 mm 81.0 W/m2 FEW
08:43 5.1 °C 3.6 °C 1016.8 hPa Calm     90 % 0.0 mm 111.0 W/m2 FEW
08:48 5.2 °C 3.7 °C 1016.8 hPa Calm     90 % 0.0 mm 118.0 W/m2 CLR
08:53 5.2 °C 3.7 °C 1016.8 hPa Calm     90 % 0.0 mm 135.0 W/m2 CLR
08:58 5.2 °C 3.7 °C 1016.8 hPa Calm     90 % 0.0 mm 155.0 W/m2 CLR
09:03 5.3 °C 3.8 °C 1016.8 hPa Calm     90 % 0.0 mm 146.0 W/m2 CLR
09:08 5.4 °C 3.9 °C 1016.8 hPa Calm     90 % 0.0 mm 155.0 W/m2 CLR
09:13 5.6 °C 4.1 °C 1016.8 hPa Calm     90 % 0.0 mm 179.0 W/m2 CLR
09:18 5.8 °C 4.3 °C 1016.8 hPa Calm     90 % 0.0 mm 193.0 W/m2 CLR
09:23 6.0 °C 4.5 °C 1016.8 hPa Calm     90 % 0.0 mm 258.0 W/m2 CLR
09:28 6.3 °C 4.6 °C 1016.8 hPa Calm     89 % 0.0 mm 232.0 W/m2 CLR
09:33 6.6 °C 4.7 °C 1016.8 hPa Calm     88 % 0.0 mm 330.0 W/m2 CLR
09:38 6.8 °C 4.4 °C 1016.8 hPa Calm     85 % 0.0 mm 190.0 W/m2 CLR
09:43 7.1 °C 4.6 °C 1017.2 hPa Calm     84 % 0.0 mm 176.0 W/m2 CLR
09:44 7.1 °C 4.4 °C 1017.2 hPa Calm     83 % 0.0 mm 167.0 W/m2 CLR
09:49 7.2 °C 4.1 °C 1017.2 hPa Calm     81 % 0.0 mm 264.0 W/m2 CLR
09:54 7.3 °C 4.1 °C 1017.5 hPa Calm     80 % 0.0 mm 137.0 W/m2 CLR
09:59 7.3 °C 4.1 °C 1017.5 hPa Calm     80 % 0.0 mm 139.0 W/m2 CLR
10:04 7.3 °C 4.1 °C 1017.5 hPa Calm     80 % 0.0 mm 241.0 W/m2 CLR
10:09 7.5 °C 4.3 °C 1017.5 hPa Calm     80 % 0.0 mm 374.0 W/m2 CLR
10:14 7.6 °C 4.2 °C 1017.5 hPa West 5.6 km/h 5.6 km/h 79 % 0.0 mm 176.0 W/m2 CLR
10:19 7.6 °C 4.2 °C 1017.5 hPa NNW 5.6 km/h 5.6 km/h 79 % 0.0 mm 183.0 W/m2 CLR
10:24 7.7 °C 4.4 °C 1017.5 hPa Calm     80 % 0.0 mm 274.0 W/m2 CLR
10:29 7.7 °C 4.1 °C 1017.5 hPa Calm     78 % 0.0 mm 422.0 W/m2 CLR
10:34 7.9 °C 4.5 °C 1017.5 hPa North 5.6 km/h 5.6 km/h 79 % 0.0 mm 297.0 W/m2 CLR
10:39 8.0 °C 4.2 °C 1017.5 hPa Calm     77 % 0.0 mm 387.0 W/m2 CLR
10:44 8.2 °C 4.6 °C 1017.2 hPa WNW 5.6 km/h   78 % 0.0 mm 612.0 W/m2 CLR
10:49 8.4 °C 4.6 °C 1017.2 hPa Calm     77 % 0.0 mm 322.0 W/m2 CLR
10:54 8.6 °C 4.8 °C 1017.2 hPa WNW 1.9 km/h   77 % 0.0 mm 341.0 W/m2 CLR
10:59 8.6 °C 4.6 °C 1017.2 hPa NW 8.0 km/h 8.0 km/h 76 % 0.0 mm 388.0 W/m2 CLR
11:04 8.7 °C 4.7 °C 1017.2 hPa Calm     76 % 0.0 mm 436.0 W/m2 CLR
11:19 8.8 °C 4.4 °C 1016.8 hPa NW 9.3 km/h 9.3 km/h 74 % 0.0 mm 325.0 W/m2 CLR
11:24 8.9 °C 4.9 °C 1016.8 hPa Calm     76 % 0.0 mm 311.0 W/m2 CLR
11:29 8.9 °C 4.7 °C 1016.8 hPa NNW 7.4 km/h 7.4 km/h 75 % 0.0 mm 404.0 W/m2 CLR
11:34 9.1 °C 4.8 °C 1016.8 hPa Calm     75 % 0.0 mm 418.0 W/m2 CLR
11:39 9.2 °C 4.6 °C 1016.8 hPa North 5.6 km/h 5.6 km/h 73 % 0.0 mm 394.0 W/m2 CLR
11:44 9.3 °C 4.7 °C 1016.8 hPa NW 9.3 km/h 9.3 km/h 73 % 0.0 mm 359.0 W/m2 CLR
11:49 9.3 °C 4.5 °C 1016.8 hPa NNW 9.3 km/h 9.3 km/h 72 % 0.0 mm 316.0 W/m2 CLR
11:54 9.2 °C 4.4 °C 1016.8 hPa Calm     72 % 0.0 mm 352.0 W/m2 CLR
11:59 9.3 °C 4.6 °C 1016.5 hPa NW 13.0 km/h 13.0 km/h 72 % 0.0 mm 346.0 W/m2 CLR
12:04 9.4 °C 4.2 °C 1016.5 hPa North 13.0 km/h 13.0 km/h 70 % 0.0 mm 536.0 W/m2 CLR
12:09 9.3 °C 4.1 °C 1016.5 hPa NNW 9.3 km/h 9.3 km/h 70 % 0.0 mm 271.0 W/m2 CLR
12:14 9.3 °C 4.1 °C 1016.5 hPa NNE 9.3 km/h 9.3 km/h 70 % 0.0 mm 239.0 W/m2 CLR
12:19 9.3 °C 4.3 °C 1016.5 hPa NW 6.4 km/h 6.4 km/h 71 % 0.0 mm 322.0 W/m2 CLR
12:24 9.3 °C 4.3 °C 1016.5 hPa Calm     71 % 0.0 mm 262.0 W/m2 CLR
12:29 9.3 °C 4.3 °C 1016.5 hPa NNW 11.1 km/h 11.1 km/h 71 % 0.0 mm 241.0 W/m2 CLR
12:39 9.3 °C 4.1 °C 1016.5 hPa NNE 5.6 km/h 5.6 km/h 70 % 0.3 mm 141.0 W/m2 RA
12:44 9.3 °C 4.3 °C 1016.5 hPa Calm     71 % 0.3 mm 190.0 W/m2 CLR
12:49 9.2 °C 4.1 °C 1016.5 hPa North 4.8 km/h 4.8 km/h 70 % 0.3 mm 214.0 W/m2 CLR
12:54 9.2 °C 4.2 °C 1016.5 hPa North 7.4 km/h 7.4 km/h 71 % 0.3 mm 267.0 W/m2 CLR
12:59 9.2 °C 4.2 °C 1016.5 hPa North 5.6 km/h 5.6 km/h 71 % 0.3 mm 288.0 W/m2 CLR
13:04 9.2 °C 4.2 °C 1016.5 hPa NNW 7.4 km/h 7.4 km/h 71 % 0.3 mm 304.0 W/m2 CLR
13:09 9.2 °C 4.2 °C 1016.1 hPa NE 6.4 km/h 6.4 km/h 71 % 0.3 mm 295.0 W/m2 CLR
13:14 9.3 °C 4.1 °C 1016.1 hPa Calm     70 % 0.3 mm 309.0 W/m2 CLR
13:19 9.4 °C 4.2 °C 1016.1 hPa Calm     70 % 0.3 mm 251.0 W/m2 CLR
13:24 9.4 °C 4.4 °C 1016.1 hPa NW 5.6 km/h 5.6 km/h 71 % 0.3 mm 262.0 W/m2 CLR
13:29 9.5 °C 4.5 °C 1016.1 hPa Calm     71 % 0.3 mm 260.0 W/m2 CLR
13:39 9.7 °C 4.5 °C 1015.8 hPa Calm     70 % 0.0 mm 346.0 W/m2 CLR
13:45 9.8 °C 4.6 °C 1015.8 hPa Calm     70 % 0.0 mm 322.0 W/m2 CLR
13:55 10.0 °C 4.8 °C 1015.5 hPa Calm     70 % 0.0 mm 329.0 W/m2 CLR
14:00 10.2 °C 4.8 °C 1015.8 hPa Calm     69 % 0.0 mm 320.0 W/m2 CLR
14:05 10.3 °C 4.8 °C 1015.5 hPa Calm     69 % 0.0 mm 272.0 W/m2 CLR
14:10 10.3 °C 5.1 °C 1015.5 hPa WNW 9.3 km/h 9.3 km/h 70 % 0.0 mm 271.0 W/m2 CLR
14:15 10.3 °C 4.9 °C 1015.5 hPa WNW 1.9 km/h   69 % 0.0 mm 255.0 W/m2 CLR
14:20 10.2 °C 4.8 °C 1015.5 hPa Calm   2.4 km/h 69 % 0.0 mm 260.0 W/m2 CLR
14:25 10.2 °C 4.8 °C 1015.5 hPa Calm     69 % 0.0 mm 278.0 W/m2 CLR
14:30 10.3 °C 4.6 °C 1015.1 hPa Calm     68 % 0.0 mm 260.0 W/m2 CLR
14:35 10.3 °C 4.6 °C 1015.1 hPa Calm     68 % 0.0 mm 258.0 W/m2 CLR
14:45 10.5 °C 4.8 °C 1015.1 hPa Calm     68 % 0.0 mm 257.0 W/m2 CLR
14:50 10.6 °C 5.1 °C 1015.1 hPa Calm     69 % 0.0 mm 267.0 W/m2 CLR
14:55 10.6 °C 4.9 °C 1014.8 hPa Calm     68 % 0.0 mm 237.0 W/m2 CLR
15:00 10.7 °C 5.0 °C 1014.8 hPa Calm     68 % 0.0 mm 230.0 W/m2 CLR
15:05 10.6 °C 4.7 °C 1014.8 hPa West 1.9 km/h   67 % 0.0 mm 209.0 W/m2 CLR
15:10 10.4 °C 4.8 °C 1014.8 hPa Calm     68 % 0.0 mm 181.0 W/m2 CLR
15:15 10.5 °C 5.1 °C 1014.8 hPa NNW 3.7 km/h   69 % 0.0 mm 181.0 W/m2 CLR
15:20 10.4 °C 4.8 °C 1014.4 hPa Calm     68 % 0.0 mm 146.0 W/m2 CLR
15:25 10.4 °C 4.8 °C 1014.8 hPa Calm   0.2 km/h 68 % 0.0 mm 142.0 W/m2 CLR
15:30 10.3 °C 4.7 °C 1014.4 hPa WNW 5.6 km/h 5.6 km/h 68 % 0.0 mm 158.0 W/m2 CLR
15:35 10.3 °C 5.1 °C 1014.8 hPa NW 7.4 km/h 7.4 km/h 70 % 0.0 mm 158.0 W/m2 CLR
15:40 10.3 °C 4.8 °C 1014.4 hPa NNW 7.4 km/h 7.4 km/h 69 % 0.0 mm 146.0 W/m2 CLR
15:45 10.3 °C 4.8 °C 1014.8 hPa WNW 5.6 km/h 5.6 km/h 69 % 0.0 mm 146.0 W/m2 CLR
15:50 10.3 °C 5.1 °C 1014.8 hPa Calm     70 % 0.0 mm 146.0 W/m2 CLR
15:55 10.4 °C 4.9 °C 1014.8 hPa Calm     69 % 0.0 mm 144.0 W/m2 CLR
16:00 10.4 °C 5.2 °C 1014.8 hPa Calm     70 % 0.0 mm 148.0 W/m2 CLR
16:05 10.4 °C 5.0 °C 1014.4 hPa Calm     69 % 0.0 mm 160.0 W/m2 CLR
16:10 10.5 °C 5.1 °C 1014.4 hPa Calm     69 % 0.0 mm 169.0 W/m2 CLR
16:15 10.5 °C 5.1 °C 1014.4 hPa Calm     69 % 0.0 mm 176.0 W/m2 CLR
16:20 10.6 °C 5.1 °C 1014.4 hPa Calm     69 % 0.0 mm 178.0 W/m2 CLR
16:25 10.6 °C 4.9 °C 1014.4 hPa Calm     68 % 0.0 mm 174.0 W/m2 CLR
16:30 10.6 °C 4.9 °C 1014.4 hPa Calm     68 % 0.0 mm 195.0 W/m2 CLR
16:35 10.6 °C 4.9 °C 1014.4 hPa Calm     68 % 0.0 mm 193.0 W/m2 CLR
16:40 10.6 °C 4.9 °C 1014.4 hPa Calm     68 % 0.0 mm 199.0 W/m2 CLR
16:45 10.7 °C 5.1 °C 1014.4 hPa NW 5.6 km/h 5.6 km/h 68 % 0.0 mm 183.0 W/m2 CLR
16:50 10.8 °C 4.7 °C 1014.4 hPa Calm     66 % 0.0 mm 160.0 W/m2 CLR
16:55 10.8 °C 4.9 °C 1014.4 hPa Calm     67 % 0.0 mm 141.0 W/m2 CLR
17:00 10.7 °C 4.6 °C 1014.1 hPa WNW 3.7 km/h   66 % 0.0 mm 125.0 W/m2 CLR
17:05 10.7 °C 4.8 °C 1014.1 hPa Calm     67 % 0.0 mm 127.0 W/m2 CLR
17:10 10.7 °C 4.8 °C 1014.1 hPa Calm     67 % 0.0 mm 135.0 W/m2 CLR
17:15 10.7 °C 4.8 °C 1014.1 hPa WNW 5.6 km/h 5.6 km/h 67 % 0.0 mm 128.0 W/m2 CLR
17:20 10.7 °C 4.8 °C 1014.1 hPa NW 6.4 km/h 6.4 km/h 67 % 0.0 mm 116.0 W/m2 CLR
17:25 10.7 °C 4.8 °C 1014.1 hPa Calm     67 % 0.0 mm 114.0 W/m2 CLR
17:30 10.7 °C 4.6 °C 1014.4 hPa Calm     66 % 0.0 mm 113.0 W/m2 CLR
17:35 10.7 °C 4.8 °C 1014.4 hPa NW 7.4 km/h 7.4 km/h 67 % 0.0 mm 104.0 W/m2 CLR
17:40 10.7 °C 4.8 °C 1014.4 hPa NW 5.6 km/h 5.6 km/h 67 % 0.0 mm 97.0 W/m2 CLR
17:45 10.7 °C 4.8 °C 1014.4 hPa NW 5.6 km/h 5.6 km/h 67 % 0.0 mm 88.0 W/m2 CLR
17:50 10.7 °C 4.6 °C 1014.4 hPa Calm     66 % 0.0 mm 76.0 W/m2 CLR
17:55 10.6 °C 4.5 °C 1014.1 hPa WNW 5.6 km/h 5.6 km/h 66 % 0.0 mm 65.0 W/m2 FEW
18:00 10.6 °C 4.7 °C 1014.1 hPa NW 5.6 km/h 5.6 km/h 67 % 0.0 mm 63.0 W/m2 FEW
18:05 10.6 °C 4.7 °C 1014.1 hPa NW 5.6 km/h 5.6 km/h 67 % 0.0 mm 58.0 W/m2 SCT
18:10 10.5 °C 4.8 °C 1014.1 hPa WNW 5.6 km/h 5.6 km/h 68 % 0.0 mm 51.0 W/m2 SCT
18:15 10.5 °C 4.8 °C 1014.1 hPa Calm     68 % 0.0 mm 47.0 W/m2 SCT
18:20 10.5 °C 4.8 °C 1014.1 hPa Calm     68 % 0.0 mm 42.0 W/m2 BKN
18:25 10.5 °C 4.8 °C 1014.1 hPa Calm     68 % 0.0 mm 35.0 W/m2 BKN
18:30 10.4 °C 4.6 °C 1014.1 hPa Calm     67 % 0.0 mm 28.0 W/m2 BKN
18:35 10.4 °C 4.7 °C 1014.4 hPa Calm     68 % 0.0 mm 25.0 W/m2 BKN
18:40 10.4 °C 4.7 °C 1014.4 hPa West 1.9 km/h   68 % 0.0 mm 19.0 W/m2 BKN
18:45 10.3 °C 4.7 °C 1014.1 hPa WSW 8.0 km/h 8.0 km/h 68 % 0.0 mm 16.0 W/m2 BKN
18:50 10.3 °C 4.8 °C 1014.1 hPa West 5.6 km/h 5.6 km/h 69 % 0.0 mm 12.0 W/m2 BKN
18:55 10.2 °C 4.8 °C 1014.1 hPa West 7.4 km/h 7.4 km/h 69 % 0.0 mm 9.0 W/m2 BKN
19:00 10.2 °C 4.7 °C 1014.1 hPa West 7.4 km/h 7.4 km/h 69 % 0.0 mm 7.0 W/m2 BKN
19:05 10.1 °C 4.9 °C 1014.4 hPa West 5.6 km/h 5.6 km/h 70 % 0.0 mm 5.0 W/m2 OVC
19:10 10.1 °C 4.8 °C 1014.1 hPa WNW 5.6 km/h 5.6 km/h 70 % 0.0 mm 0.0 W/m2 OVC
19:15 10.0 °C 4.8 °C 1014.1 hPa West 5.6 km/h 5.6 km/h 70 % 0.0 mm 0.0 W/m2 OVC
19:20 9.9 °C 4.9 °C 1014.1 hPa West 5.6 km/h 5.6 km/h 71 % 0.0 mm 0.0 W/m2 OVC
19:25 9.9 °C 4.9 °C 1014.1 hPa WSW 3.7 km/h 3.7 km/h 71 % 0.0 mm 0.0 W/m2 OVC
19:30 9.8 °C 4.8 °C 1013.8 hPa Calm     71 % 0.0 mm 0.0 W/m2 CLR
19:35 9.7 °C 4.8 °C 1014.1 hPa Calm     72 % 0.0 mm 0.0 W/m2 CLR
19:40 9.6 °C 4.8 °C 1014.1 hPa Calm     72 % 0.0 mm 0.0 W/m2 CLR
19:45 9.5 °C 4.9 °C 1014.1 hPa Calm     73 % 0.0 mm 0.0 W/m2 CLR
19:50 9.5 °C 4.9 °C 1014.4 hPa Calm     73 % 0.0 mm 0.0 W/m2 CLR
20:00 9.2 °C 5.0 °C 1014.1 hPa Calm     75 % 0.0 mm 0.0 W/m2 CLR
20:05 9.1 °C 4.9 °C 1014.4 hPa Calm     75 % 0.0 mm 0.0 W/m2 CLR
20:10 9.1 °C 4.8 °C 1014.1 hPa Calm     75 % 0.0 mm 0.0 W/m2 CLR
20:15 9.0 °C 5.0 °C 1014.1 hPa Calm     76 % 0.0 mm 0.0 W/m2 CLR
20:20 8.9 °C 4.9 °C 1014.1 hPa Calm     76 % 0.0 mm 0.0 W/m2 CLR
20:21 8.9 °C 4.9 °C 1014.1 hPa Calm     76 % 0.0 mm 0.0 W/m2 CLR
20:26 8.8 °C 5.0 °C 1014.1 hPa Calm     77 % 0.0 mm 0.0 W/m2 CLR
20:31 8.8 °C 4.8 °C 1013.8 hPa Calm     76 % 0.0 mm 0.0 W/m2 CLR
20:36 8.9 °C 4.9 °C 1013.8 hPa WNW 5.6 km/h 5.6 km/h 76 % 0.0 mm 0.0 W/m2 CLR
20:41 9.0 °C 4.8 °C 1013.8 hPa WNW 4.8 km/h 5.0 km/h 75 % 0.0 mm 0.0 W/m2 CLR
20:46 9.2 °C 4.8 °C 1013.8 hPa WNW 11.3 km/h 11.3 km/h 74 % 0.0 mm 0.0 W/m2 CLR
20:51 9.4 °C 4.8 °C 1013.8 hPa WNW 11.1 km/h 11.1 km/h 73 % 0.0 mm 0.0 W/m2 CLR
20:56 9.3 °C 4.7 °C 1013.8 hPa WNW 11.1 km/h 11.1 km/h 73 % 0.0 mm 0.0 W/m2 CLR
21:01 9.3 °C 4.7 °C 1013.8 hPa WNW 9.3 km/h 9.3 km/h 73 % 0.0 mm 0.0 W/m2 CLR
21:06 9.3 °C 4.7 °C 1013.8 hPa WNW 14.8 km/h 14.8 km/h 73 % 0.0 mm 0.0 W/m2 CLR
21:11 9.3 °C 4.7 °C 1013.4 hPa West 13.0 km/h 13.0 km/h 73 % 0.0 mm 0.0 W/m2 CLR
21:16 9.3 °C 4.5 °C 1013.4 hPa West 14.8 km/h 14.8 km/h 72 % 0.0 mm 0.0 W/m2 CLR
21:21 9.4 °C 4.6 °C 1013.1 hPa WNW 13.0 km/h 13.0 km/h 72 % 0.0 mm 0.0 W/m2 CLR
21:26 9.4 °C 4.6 °C 1013.1 hPa WNW 13.0 km/h 13.0 km/h 72 % 0.0 mm 0.0 W/m2 CLR
21:31 9.4 °C 4.4 °C 1013.1 hPa West 9.3 km/h 9.3 km/h 71 % 0.0 mm 0.0 W/m2 CLR
21:36 9.4 °C 4.4 °C 1013.1 hPa WNW 7.4 km/h 7.4 km/h 71 % 0.0 mm 0.0 W/m2 CLR
21:41 9.4 °C 4.4 °C 1013.1 hPa WNW 8.0 km/h 8.0 km/h 71 % 0.0 mm 0.0 W/m2 CLR
21:46 9.3 °C 4.6 °C 1013.1 hPa WNW 9.3 km/h 9.3 km/h 72 % 0.0 mm 0.0 W/m2 CLR
21:51 9.3 °C 4.3 °C 1013.1 hPa WNW 7.4 km/h 7.4 km/h 71 % 0.0 mm 0.0 W/m2 CLR
21:56 9.3 °C 4.3 °C 1013.4 hPa WNW 7.4 km/h 7.4 km/h 71 % 0.0 mm 0.0 W/m2 CLR
22:01 9.2 °C 4.4 °C 1013.4 hPa Calm     72 % 0.0 mm 0.0 W/m2 CLR
22:06 9.2 °C 4.4 °C 1013.4 hPa Calm     72 % 0.0 mm 0.0 W/m2 CLR
22:11 9.1 °C 4.7 °C 1013.4 hPa NE 7.4 km/h 7.4 km/h 74 % 0.0 mm 0.0 W/m2 CLR
22:16 9.0 °C 4.4 °C 1013.8 hPa ENE 14.8 km/h 14.8 km/h 73 % 0.0 mm 0.0 W/m2 CLR
22:21 8.9 °C 4.1 °C 1013.8 hPa NE 11.1 km/h 11.1 km/h 72 % 0.0 mm 0.0 W/m2 CLR
22:26 8.8 °C 4.0 °C 1013.8 hPa NE 11.1 km/h 11.1 km/h 72 % 0.0 mm 0.0 W/m2 CLR
22:31 8.7 °C 3.9 °C 1014.1 hPa NNE 9.3 km/h 9.3 km/h 72 % 0.0 mm 0.0 W/m2 CLR
22:36 8.6 °C 4.1 °C 1014.1 hPa NE 9.7 km/h 9.7 km/h 73 % 0.0 mm 0.0 W/m2 CLR
22:41 8.6 °C 4.0 °C 1014.1 hPa NE 7.4 km/h 7.4 km/h 73 % 0.0 mm 0.0 W/m2 CLR
22:46 8.5 °C 3.7 °C 1014.1 hPa NE 9.7 km/h 9.7 km/h 72 % 0.0 mm 0.0 W/m2 CLR
22:51 8.5 °C 3.7 °C 1014.1 hPa NE 7.4 km/h 7.4 km/h 72 % 0.0 mm 0.0 W/m2 CLR
22:56 8.4 °C 3.8 °C 1014.1 hPa NNE 5.6 km/h   73 % 0.0 mm 0.0 W/m2 CLR
23:01 8.4 °C 3.8 °C 1014.1 hPa NE 1.9 km/h 1.9 km/h 73 % 0.0 mm 0.0 W/m2 CLR
23:06 8.3 °C 3.8 °C 1014.1 hPa ENE 3.7 km/h 3.7 km/h 73 % 0.0 mm 0.0 W/m2 CLR
23:11 8.3 °C 3.9 °C 1014.1 hPa Calm     74 % 0.0 mm 0.0 W/m2 CLR
23:16 8.2 °C 3.8 °C 1014.4 hPa Calm     74 % 0.0 mm 0.0 W/m2 CLR
23:21 8.2 °C 3.8 °C 1014.4 hPa ENE 3.7 km/h 3.7 km/h 74 % 0.0 mm 0.0 W/m2 CLR
23:26 8.1 °C 3.9 °C 1014.4 hPa Calm     75 % 0.0 mm 0.0 W/m2 CLR
23:31 8.0 °C 4.0 °C 1014.8 hPa North 7.4 km/h 7.4 km/h 76 % 0.0 mm 0.0 W/m2 CLR
23:36 7.9 °C 4.1 °C 1014.4 hPa NE 7.4 km/h 7.4 km/h 77 % 0.0 mm 0.0 W/m2 CLR
23:41 7.8 °C 4.2 °C 1014.4 hPa NE 11.1 km/h 11.1 km/h 78 % 0.0 mm 0.0 W/m2 CLR
23:46 7.6 °C 4.2 °C 1014.1 hPa Calm     79 % 0.0 mm 0.0 W/m2 CLR
23:51 7.5 °C 4.3 °C 1014.1 hPa Calm     80 % 0.0 mm 0.0 W/m2 CLR
23:56 7.4 °C 4.3 °C 1014.1 hPa Calm     81 % 0.0 mm 0.0 W/m2 CLR
Lo Temps de Massalio
Compliments of Weather Underground - 1.25 mb